Time;durP1;ratioP1;P1;durP2;ratioP2;P2;SDS_P1;SDS_P2;PMS_P1;PMS_P2;Temp;Humidity;BMP_temperature;BMP_pressure;BME280_temperature;BME280_humidity;BME280_pressure;Samples;Min_cycle;Max_cycle;Signal;HPM_P1;HPM_P2
2021/01/21 00:03:03;;;;;;;5.82;2.00;;;;;;;7.37;62.97;99199.06;10182886;28;20696;-67
2021/01/21 00:08:00;;;;;;;6.00;1.80;;;;;;;7.36;62.89;99197.50;10184284;28;20092;-67
2021/01/21 00:12:56;;;;;;;7.32;1.70;;;;;;;7.32;62.82;99202.00;10194236;28;20436;-70
2021/01/21 00:17:52;;;;;;;5.63;1.30;;;;;;;7.32;63.23;99196.56;10186046;28;20052;-68
2021/01/21 00:22:48;;;;;;;5.32;1.35;;;;;;;7.31;63.07;99181.41;10204992;28;20428;-67
2021/01/21 00:27:45;;;;;;;6.78;1.70;;;;;;;7.28;63.21;99179.31;10199199;28;20140;-69
2021/01/21 00:32:40;;;;;;;4.03;1.65;;;;;;;7.27;63.33;99176.97;10202025;28;20041;-69
2021/01/21 00:37:37;;;;;;;6.57;1.70;;;;;;;7.25;63.88;99180.00;10197626;28;20054;-69
2021/01/21 00:42:33;;;;;;;10.50;2.65;;;;;;;7.28;63.83;99163.00;10201931;28;20049;-69
2021/01/21 00:47:29;;;;;;;6.32;1.80;;;;;;;7.28;64.06;99171.16;10192748;28;20092;-69
2021/01/21 00:52:25;;;;;;;9.05;1.60;;;;;;;7.34;63.50;99167.13;10205795;28;20099;-69
2021/01/21 00:57:21;;;;;;;5.15;1.30;;;;;;;7.36;63.63;99164.09;10200534;28;20101;-69
2021/01/21 01:02:17;;;;;;;5.28;1.40;;;;;;;7.32;64.12;99153.06;10195398;28;20132;-69
2021/01/21 01:07:13;;;;;;;7.32;1.77;;;;;;;7.27;64.33;99134.25;10177468;28;20526;-70
2021/01/21 01:12:09;;;;;;;4.30;1.45;;;;;;;7.28;64.83;99130.38;10200040;28;20415;-67
2021/01/21 01:17:07;;;;;;;5.72;1.25;;;;;;;7.30;64.31;99125.41;10195773;28;20042;-67
2021/01/21 01:22:03;;;;;;;5.15;1.50;;;;;;;7.25;64.52;99124.84;10206484;28;20045;-67
2021/01/21 01:26:59;;;;;;;6.03;1.60;;;;;;;7.20;64.74;99111.47;10190788;28;20050;-68
2021/01/21 01:31:55;;;;;;;3.60;1.30;;;;;;;7.20;65.00;99101.38;10196216;28;20041;-68
2021/01/21 01:36:52;;;;;;;7.15;1.30;;;;;;;7.21;64.92;99089.38;10206348;28;20522;-64
2021/01/21 01:41:48;;;;;;;5.70;1.98;;;;;;;7.21;64.37;99075.78;10206515;28;20041;-68
2021/01/21 01:46:44;;;;;;;5.55;1.40;;;;;;;7.23;64.78;99073.50;10181464;28;20741;-68
2021/01/21 01:51:44;;;;;;;6.65;1.40;;;;;;;7.27;64.71;99062.78;10207097;28;20770;-68
2021/01/21 01:56:40;;;;;;;5.93;2.28;;;;;;;7.23;65.11;99062.66;10212760;28;20053;-68
2021/01/21 02:01:37;;;;;;;5.38;1.70;;;;;;;7.21;65.58;99051.31;10197002;28;20041;-65
2021/01/21 02:06:33;;;;;;;6.25;1.70;;;;;;;7.14;65.29;99038.25;10190265;28;20049;-68
2021/01/21 02:11:32;;;;;;;6.55;1.50;;;;;;;7.07;65.83;99042.66;10190184;28;20129;-66
2021/01/21 02:16:46;;;;;;;3.95;1.15;;;;;;;7.08;65.85;99038.84;10193750;28;20429;-66
2021/01/21 02:22:14;;;;;;;4.63;1.55;;;;;;;7.01;66.23;99039.38;10193178;28;20706;-66
2021/01/21 02:27:12;;;;;;;5.07;1.80;;;;;;;7.05;66.31;99012.31;10199894;28;20069;-69
2021/01/21 02:32:08;;;;;;;5.70;1.63;;;;;;;6.99;66.48;98997.38;10206400;28;20131;-68
2021/01/21 02:37:09;;;;;;;3.72;1.40;;;;;;;7.03;66.24;98992.81;10208473;28;20467;-68
2021/01/21 02:42:06;;;;;;;5.88;1.60;;;;;;;7.01;66.31;98978.78;10202115;28;20042;-68
2021/01/21 02:47:02;;;;;;;5.68;1.50;;;;;;;6.91;66.35;98969.91;10193206;28;20046;-70
2021/01/21 02:52:01;;;;;;;4.80;1.52;;;;;;;6.93;66.79;98956.78;10207809;28;20049;-68
2021/01/21 02:57:05;;;;;;;5.70;1.23;;;;;;;6.90;66.74;98941.19;10192904;28;20046;-66
2021/01/21 03:02:06;;;;;;;5.38;1.52;;;;;;;6.91;66.60;98931.88;10173404;28;20042;-67
2021/01/21 03:07:03;;;;;;;4.35;1.35;;;;;;;6.90;66.52;98918.66;10170821;28;20100;-67
2021/01/21 03:12:23;;;;;;;4.28;1.48;;;;;;;6.91;66.64;98896.56;10159071;28;20504;-68
2021/01/21 03:17:21;;;;;;;5.65;1.40;;;;;;;6.93;66.78;98888.09;10167285;28;20054;-68
2021/01/21 03:22:18;;;;;;;10.50;1.40;;;;;;;6.98;66.56;98876.22;10165472;28;20066;-68
2021/01/21 03:27:14;;;;;;;5.57;1.50;;;;;;;7.01;66.43;98875.53;10168719;28;20054;-68
2021/01/21 03:32:10;;;;;;;3.97;1.45;;;;;;;7.05;65.85;98876.44;10167297;28;20112;-68
2021/01/21 03:37:06;;;;;;;6.50;1.23;;;;;;;7.10;65.75;98865.34;10190963;28;20050;-70
2021/01/21 03:42:03;;;;;;;5.68;1.30;;;;;;;7.12;65.71;98844.84;10193966;28;20042;-69
2021/01/21 03:46:58;;;;;;;4.72;1.52;;;;;;;7.17;65.92;98851.97;10195693;28;20073;-69
2021/01/21 03:51:55;;;;;;;5.07;1.38;;;;;;;7.17;65.50;98827.50;10192899;28;20550;-69
2021/01/21 03:56:51;;;;;;;4.57;1.58;;;;;;;7.20;65.32;98824.13;10203891;28;20044;-69
2021/01/21 04:01:47;;;;;;;5.88;1.20;;;;;;;7.23;65.22;98801.69;10200743;28;20034;-67
2021/01/21 04:06:44;;;;;;;6.32;1.40;;;;;;;7.26;65.11;98790.13;10188378;28;20085;-67
2021/01/21 04:11:40;;;;;;;4.72;1.45;;;;;;;7.28;65.11;98793.28;10204615;28;20431;-68
2021/01/21 04:16:35;;;;;;;4.20;1.33;;;;;;;7.19;65.47;98772.81;10175031;28;20472;-66
2021/01/21 04:21:32;;;;;;;6.35;1.42;;;;;;;7.16;65.37;98774.28;10199254;28;20053;-68
2021/01/21 04:26:29;;;;;;;5.65;1.30;;;;;;;7.11;65.73;98771.81;10199077;28;20103;-68
2021/01/21 04:31:25;;;;;;;4.53;1.38;;;;;;;7.08;65.64;98761.63;10205480;28;20562;-67
2021/01/21 04:36:21;;;;;;;6.00;1.38;;;;;;;6.94;66.17;98749.19;10195421;28;20074;-68
2021/01/21 04:41:17;;;;;;;3.42;1.13;;;;;;;6.89;66.31;98765.72;10178792;28;20042;-67
2021/01/21 04:46:13;;;;;;;5.18;1.30;;;;;;;6.84;66.80;98746.13;10193892;28;20481;-68
2021/01/21 04:51:12;;;;;;;6.00;1.40;;;;;;;6.80;66.96;98746.03;10188355;28;20057;-67
2021/01/21 04:56:14;;;;;;;7.72;1.50;;;;;;;6.78;66.87;98715.72;10196835;28;20415;-67
2021/01/21 05:01:10;;;;;;;4.20;1.50;;;;;;;6.77;66.98;98716.81;10195370;28;20049;-67
2021/01/21 05:06:06;;;;;;;7.60;1.60;;;;;;;6.78;66.70;98693.97;10191789;28;20053;-68
2021/01/21 05:11:02;;;;;;;10.23;1.55;;;;;;;6.82;66.51;98699.50;10198127;28;20081;-69
2021/01/21 05:15:58;;;;;;;5.78;1.30;;;;;;;6.81;66.25;98693.28;10164804;28;20050;-69
2021/01/21 05:20:55;;;;;;;5.07;1.20;;;;;;;6.75;66.71;98683.78;10169836;28;20046;-69
2021/01/21 05:25:52;;;;;;;6.38;1.48;;;;;;;6.81;66.25;98677.00;10168714;28;20716;-70
2021/01/21 05:30:48;;;;;;;6.05;1.38;;;;;;;6.82;66.17;98662.25;10169043;28;20611;-67
2021/01/21 05:35:50;;;;;;;5.07;1.20;;;;;;;6.87;65.94;98653.91;10187635;28;20411;-67
2021/01/21 05:40:47;;;;;;;5.38;1.30;;;;;;;6.97;65.40;98646.41;10191932;28;20107;-68
2021/01/21 05:45:45;;;;;;;4.05;1.15;;;;;;;7.08;65.24;98621.13;10183912;28;20076;-67
2021/01/21 05:50:44;;;;;;;3.60;0.95;;;;;;;7.18;64.71;98614.38;10177187;28;20522;-68
2021/01/21 05:55:40;;;;;;;3.67;1.02;;;;;;;7.30;64.59;98625.19;10187761;28;20054;-68
2021/01/21 06:00:38;;;;;;;6.07;1.15;;;;;;;7.44;63.65;98615.84;10185216;28;20727;-67
2021/01/21 06:05:34;;;;;;;6.25;1.30;;;;;;;7.50;63.35;98603.59;10174979;28;20046;-66
2021/01/21 06:10:33;;;;;;;3.03;1.05;;;;;;;7.61;63.12;98607.34;10190772;28;20144;-66
2021/01/21 06:15:29;;;;;;;5.75;1.27;;;;;;;7.69;62.45;98590.09;10189677;28;20907;-66
2021/01/21 06:20:25;;;;;;;5.85;1.23;;;;;;;7.83;61.63;98594.31;10192416;28;20049;-66
2021/01/21 06:25:22;;;;;;;2.92;0.98;;;;;;;7.87;62.02;98595.19;10201064;28;20049;-67
2021/01/21 06:30:20;;;;;;;4.78;1.25;;;;;;;8.02;60.98;98592.44;10188700;28;20057;-66
2021/01/21 06:35:20;;;;;;;5.78;1.10;;;;;;;8.04;61.09;98578.50;10200588;28;20057;-66
2021/01/21 06:40:18;;;;;;;4.47;1.00;;;;;;;8.03;60.96;98582.38;10183327;28;20140;-67
2021/01/21 06:45:15;;;;;;;6.20;1.10;;;;;;;8.05;61.19;98563.75;10181429;28;20049;-66
2021/01/21 06:50:13;;;;;;;5.70;1.10;;;;;;;8.17;60.72;98565.59;10204887;28;20061;-67
2021/01/21 06:55:11;;;;;;;4.82;1.13;;;;;;;8.31;59.63;98574.06;10211177;28;20037;-66
2021/01/21 07:00:12;;;;;;;13.68;1.38;;;;;;;8.32;60.22;98566.69;10193805;28;20042;-66
2021/01/21 07:05:15;;;;;;;4.47;1.00;;;;;;;8.41;59.75;98564.59;10177321;28;20217;-66
2021/01/21 07:10:12;;;;;;;3.92;1.00;;;;;;;8.51;59.16;98580.34;10180256;28;20491;-66
2021/01/21 07:15:12;;;;;;;6.38;0.90;;;;;;;8.45;59.69;98581.81;10196243;28;20138;-66
2021/01/21 07:20:09;;;;;;;5.53;1.20;;;;;;;8.48;59.74;98583.03;10188135;28;20135;-66
2021/01/21 07:25:07;;;;;;;9.48;1.83;;;;;;;8.46;59.48;98574.41;10175300;28;20511;-65
2021/01/21 07:30:19;;;;;;;4.90;1.00;;;;;;;8.47;59.53;98576.78;10174772;28;20053;-66
2021/01/21 07:35:35;;;;;;;3.95;1.00;;;;;;;8.51;59.60;98569.47;10173222;28;20089;-66
2021/01/21 07:40:46;;;;;;;5.38;1.17;;;;;;;8.60;59.75;98593.78;10175370;28;20104;-66
2021/01/21 07:45:44;;;;;;;6.88;1.25;;;;;;;8.67;58.99;98617.66;10184579;28;20091;-66
2021/01/21 07:50:40;;;;;;;4.38;1.23;;;;;;;8.68;59.55;98643.75;10194808;28;20079;-66
2021/01/21 07:55:36;;;;;;;4.53;1.00;;;;;;;8.78;59.87;98730.41;10203832;28;20046;-66
2021/01/21 08:00:33;;;;;;;1.83;0.30;;;;;;;8.12;68.72;98825.25;10197882;28;20050;-66
2021/01/21 08:05:29;;;;;;;1.75;0.75;;;;;;;7.58;72.80;98852.84;10198638;28;20104;-66
2021/01/21 08:10:28;;;;;;;1.85;0.52;;;;;;;7.17;72.96;98819.34;10195083;28;20049;-66
2021/01/21 08:15:25;;;;;;;4.80;0.47;;;;;;;6.93;72.18;98820.94;10197787;28;20092;-66
2021/01/21 08:20:24;;;;;;;1.60;0.50;;;;;;;6.85;71.53;98835.44;10198719;28;20065;-66
2021/01/21 08:25:21;;;;;;;3.33;0.73;;;;;;;6.68;69.81;98860.09;10188766;28;20052;-66
2021/01/21 08:30:20;;;;;;;2.67;0.60;;;;;;;6.62;69.26;98864.16;10203049;28;20084;-66
2021/01/21 08:35:23;;;;;;;8.53;0.30;;;;;;;6.61;68.24;98862.56;10189678;28;20409;-67
2021/01/21 08:40:20;;;;;;;2.10;0.55;;;;;;;6.63;68.12;98863.81;10193167;28;20551;-66
2021/01/21 08:45:18;;;;;;;4.25;0.60;;;;;;;6.58;69.20;98890.41;10186609;28;20058;-66
2021/01/21 08:50:16;;;;;;;2.60;0.35;;;;;;;6.53;67.93;98867.75;10194977;28;20046;-66
2021/01/21 08:55:12;;;;;;;2.53;0.40;;;;;;;6.59;67.28;98891.97;10187939;28;20116;-66
2021/01/21 09:00:12;;;;;;;5.07;0.75;;;;;;;6.64;66.88;98884.44;10196449;28;20145;-66
2021/01/21 09:05:09;;;;;;;4.18;0.85;;;;;;;6.66;66.99;98881.34;10164974;28;20416;-66
2021/01/21 09:10:12;;;;;;;4.38;0.45;;;;;;;6.75;66.38;98911.94;10170795;28;20046;-66
2021/01/21 09:15:10;;;;;;;4.47;1.13;;;;;;;6.73;67.15;98903.34;10169068;28;20109;-66
2021/01/21 09:20:20;;;;;;;7.93;1.70;;;;;;;6.84;67.34;98926.22;10173348;28;20507;-66
2021/01/21 09:25:25;;;;;;;2.72;0.50;;;;;;;6.85;67.54;98949.56;10164165;28;20485;-66
2021/01/21 09:30:25;;;;;;;3.92;0.73;;;;;;;6.86;68.14;98940.25;10182328;28;20385;-66
2021/01/21 09:35:22;;;;;;;2.72;0.60;;;;;;;6.95;68.46;98949.09;10203415;28;20498;-66
2021/01/21 09:40:22;;;;;;;5.72;0.60;;;;;;;6.92;68.20;98943.56;10193105;28;20104;-66
2021/01/21 09:45:20;;;;;;;3.80;0.80;;;;;;;6.93;67.90;98951.38;10199240;28;20048;-66
2021/01/21 09:50:17;;;;;;;3.95;1.00;;;;;;;6.98;68.19;98963.16;10196484;28;20042;-66
2021/01/21 09:55:14;;;;;;;3.45;1.00;;;;;;;7.17;66.73;98963.41;10186301;28;20061;-66
2021/01/21 10:00:12;;;;;;;3.90;0.70;;;;;;;7.18;66.71;98994.91;10208457;28;20394;-66
2021/01/21 10:05:09;;;;;;;3.88;0.80;;;;;;;7.02;67.57;98988.53;10197449;28;20041;-66
2021/01/21 10:10:05;;;;;;;8.65;1.13;;;;;;;6.88;67.69;98991.56;10201127;28;20099;-66
2021/01/21 10:15:03;;;;;;;5.82;0.70;;;;;;;6.88;67.65;99014.06;10199190;28;20042;-66
2021/01/21 10:20:01;;;;;;;5.60;1.00;;;;;;;7.23;66.52;99029.22;10201745;28;20060;-66
2021/01/21 10:24:57;;;;;;;8.48;0.93;;;;;;;7.25;66.74;99024.25;10197376;28;20077;-66
2021/01/21 10:29:54;;;;;;;6.15;1.45;;;;;;;7.36;64.80;99030.84;10199468;28;20117;-67
2021/01/21 10:35:00;;;;;;;5.63;1.15;;;;;;;7.45;65.04;99022.56;10189458;28;20104;-67
2021/01/21 10:39:56;;;;;;;5.65;1.35;;;;;;;7.64;63.64;99022.84;10192577;28;20699;-66
2021/01/21 10:44:52;;;;;;;7.95;1.10;;;;;;;7.49;62.31;99032.44;10195082;28;20486;-66
2021/01/21 10:49:50;;;;;;;4.43;0.90;;;;;;;7.69;61.78;99019.09;10203113;28;20079;-66
2021/01/21 10:54:46;;;;;;;2.97;0.68;;;;;;;7.56;61.84;99015.56;10164665;28;20133;-66
2021/01/21 10:59:42;;;;;;;7.28;1.10;;;;;;;7.68;61.07;99021.03;10192554;28;20618;-66
2021/01/21 11:04:38;;;;;;;6.30;1.08;;;;;;;7.88;60.71;99026.69;10180400;28;20037;-66
2021/01/21 11:09:37;;;;;;;8.07;0.93;;;;;;;7.61;60.92;99034.38;10172098;28;20060;-66
2021/01/21 11:14:35;;;;;;;5.18;0.80;;;;;;;7.95;59.49;99016.81;10167971;28;20050;-66
2021/01/21 11:19:31;;;;;;;7.90;1.58;;;;;;;7.79;59.22;99016.69;10173825;28;20054;-66
2021/01/21 11:24:27;;;;;;;3.85;0.90;;;;;;;7.65;59.09;99020.91;10172682;28;20500;-66
2021/01/21 11:29:24;;;;;;;7.28;1.58;;;;;;;7.78;58.36;99022.50;10164863;28;20045;-66
2021/01/21 11:34:22;;;;;;;9.27;0.82;;;;;;;8.21;58.41;99021.91;10172347;28;20049;-66
2021/01/21 11:39:18;;;;;;;7.90;0.77;;;;;;;8.46;57.85;99013.69;10164640;28;20050;-68
2021/01/21 11:44:14;;;;;;;3.63;0.90;;;;;;;7.99;57.08;99027.81;10175067;28;20253;-66
2021/01/21 11:49:10;;;;;;;4.05;1.02;;;;;;;7.94;57.21;99014.44;10180585;28;20054;-66
2021/01/21 11:54:06;;;;;;;7.90;1.33;;;;;;;7.72;57.15;99024.63;10197978;28;20042;-66
2021/01/21 11:59:02;;;;;;;7.97;1.25;;;;;;;7.64;56.64;99038.38;10192745;28;20045;-66
2021/01/21 12:03:59;;;;;;;7.60;1.10;;;;;;;7.53;55.91;99038.78;10194232;28;20447;-66
2021/01/21 12:08:56;;;;;;;6.28;1.10;;;;;;;7.97;53.89;99019.19;10197394;28;20046;-66
2021/01/21 12:13:51;;;;;;;8.10;1.10;;;;;;;8.24;53.76;99017.69;10195359;28;20088;-66
2021/01/21 12:18:48;;;;;;;7.38;0.90;;;;;;;8.55;53.89;99027.97;10191950;28;20056;-66
2021/01/21 12:23:44;;;;;;;2.85;0.50;;;;;;;7.98;54.12;99026.22;10186302;28;20045;-66
2021/01/21 12:28:40;;;;;;;6.53;1.00;;;;;;;8.25;53.80;99026.66;10190473;28;20041;-66
2021/01/21 12:33:36;;;;;;;3.25;0.70;;;;;;;8.63;51.88;99024.31;10197331;28;20057;-66
2021/01/21 12:38:33;;;;;;;5.47;1.00;;;;;;;8.39;52.81;99040.69;10186335;28;20046;-66
2021/01/21 12:43:29;;;;;;;4.60;0.80;;;;;;;8.38;52.14;99045.34;10180805;28;20057;-66
2021/01/21 12:48:25;;;;;;;5.43;0.80;;;;;;;8.54;52.21;99031.84;10170440;28;20046;-66
2021/01/21 12:53:21;;;;;;;4.88;0.90;;;;;;;8.54;51.74;99020.94;10168063;28;20046;-66
2021/01/21 12:58:17;;;;;;;6.57;0.98;;;;;;;8.78;51.56;99013.81;10169202;28;20046;-66
2021/01/21 13:03:13;;;;;;;8.40;0.88;;;;;;;8.82;50.94;99037.28;10160607;28;20105;-66
2021/01/21 13:08:10;;;;;;;6.63;0.82;;;;;;;8.64;51.26;99031.34;10172583;28;20484;-66
2021/01/21 13:13:06;;;;;;;9.85;1.05;;;;;;;8.38;51.50;99023.56;10177022;28;20057;-66
2021/01/21 13:18:03;;;;;;;7.97;2.05;;;;;;;8.33;51.21;99031.97;10196085;28;20863;-67
2021/01/21 13:23:00;;;;;;;6.90;1.10;;;;;;;8.31;51.69;99014.38;10205638;28;20096;-67
2021/01/21 13:27:56;;;;;;;4.40;0.90;;;;;;;8.48;52.50;99008.69;10194301;28;20049;-67
2021/01/21 13:32:52;;;;;;;8.25;1.17;;;;;;;8.43;52.51;99022.56;10195012;28;20585;-67
2021/01/21 13:37:48;;;;;;;7.68;1.10;;;;;;;8.36;53.50;99047.63;10213350;28;20069;-68
2021/01/21 13:42:44;;;;;;;7.60;1.10;;;;;;;8.03;53.84;99028.72;10215809;28;20048;-67
2021/01/21 13:47:40;;;;;;;6.88;1.58;;;;;;;7.77;54.98;99043.47;10213078;28;20487;-67
2021/01/21 13:52:37;;;;;;;8.50;1.42;;;;;;;7.79;54.63;99024.88;10210747;28;20046;-67
2021/01/21 13:57:33;;;;;;;8.63;1.38;;;;;;;7.77;55.32;99045.38;10208581;28;20053;-67
2021/01/21 14:02:30;;;;;;;8.02;1.30;;;;;;;7.93;55.16;99037.34;10199452;28;20630;-67
2021/01/21 14:07:26;;;;;;;6.88;1.55;;;;;;;7.93;55.73;99040.06;10190087;28;20671;-66
2021/01/21 14:12:23;;;;;;;9.55;1.42;;;;;;;7.92;55.37;99039.28;10200842;28;20048;-67
2021/01/21 14:17:19;;;;;;;10.68;2.50;;;;;;;7.78;55.90;99033.38;10206097;28;20041;-66
2021/01/21 14:22:15;;;;;;;6.28;1.40;;;;;;;7.82;56.07;99020.69;10194068;28;20069;-67
2021/01/21 14:27:11;;;;;;;9.98;1.20;;;;;;;8.01;54.89;99036.44;10186707;28;20097;-65
2021/01/21 14:32:08;;;;;;;10.27;2.40;;;;;;;7.91;55.57;99040.38;10197327;28;20048;-67
2021/01/21 14:37:04;;;;;;;14.48;2.85;;;;;;;7.77;55.56;99054.38;10192550;28;20050;-66
2021/01/21 14:42:00;;;;;;;9.65;1.20;;;;;;;7.67;56.35;99046.63;10184523;28;20048;-67
2021/01/21 14:46:56;;;;;;;8.65;1.23;;;;;;;7.69;56.37;99044.38;10197309;28;21362;-66
2021/01/21 14:51:55;;;;;;;5.43;1.35;;;;;;;7.60;56.08;99051.84;10188836;28;20072;-66
2021/01/21 14:56:52;;;;;;;4.82;1.30;;;;;;;7.54;56.95;99045.03;10174532;28;20513;-65
2021/01/21 15:01:48;;;;;;;9.65;1.48;;;;;;;7.54;56.95;99055.91;10174510;28;20050;-67
2021/01/21 15:06:44;;;;;;;6.43;1.05;;;;;;;7.54;57.12;99028.72;10184881;28;20650;-65
2021/01/21 15:11:40;;;;;;;9.05;1.95;;;;;;;7.38;57.79;99042.97;10188388;28;20520;-66
2021/01/21 15:16:37;;;;;;;7.43;1.15;;;;;;;7.38;57.80;99037.53;10194970;28;20568;-66
2021/01/21 15:21:33;;;;;;;6.55;1.10;;;;;;;7.25;58.45;99033.19;10191374;28;20046;-66
2021/01/21 15:26:29;;;;;;;6.22;1.08;;;;;;;7.31;58.22;99040.03;10175387;28;20050;-66
2021/01/21 15:31:25;;;;;;;6.90;1.25;;;;;;;7.31;58.52;99037.31;10174950;28;20620;-66
2021/01/21 15:36:21;;;;;;;6.70;1.15;;;;;;;7.33;58.46;99024.16;10170414;28;20830;-67
2021/01/21 15:41:20;;;;;;;5.75;1.05;;;;;;;7.29;58.48;99027.91;10164223;28;20046;-66
2021/01/21 15:46:16;;;;;;;6.55;1.27;;;;;;;7.25;58.73;99038.63;10167074;28;20568;-63
2021/01/21 15:51:13;;;;;;;10.65;1.65;;;;;;;7.25;58.69;99022.31;10170790;28;20041;-67
2021/01/21 15:56:09;;;;;;;10.73;1.27;;;;;;;7.28;58.66;99021.66;10180800;28;20490;-67
2021/01/21 16:01:05;;;;;;;7.25;0.95;;;;;;;7.29;58.29;99031.41;10181448;28;20454;-67
2021/01/21 16:06:01;;;;;;;7.00;1.10;;;;;;;7.27;58.61;99019.28;10183761;28;20049;-65
2021/01/21 16:10:57;;;;;;;3.60;1.20;;;;;;;7.25;58.18;99016.88;10181297;28;20052;-67
2021/01/21 16:15:54;;;;;;;6.20;1.30;;;;;;;7.24;58.75;99015.31;10186311;28;20045;-66
2021/01/21 16:20:50;;;;;;;7.70;2.03;;;;;;;7.09;59.24;99015.94;10176368;28;20115;-67
2021/01/21 16:25:46;;;;;;;9.40;1.55;;;;;;;7.03;59.40;99036.31;10179871;28;20492;-67
2021/01/21 16:30:42;;;;;;;7.00;1.25;;;;;;;6.93;59.88;99011.13;10174515;28;20112;-66
2021/01/21 16:35:38;;;;;;;6.28;1.15;;;;;;;6.93;60.16;99008.41;10176047;28;20054;-64
2021/01/21 16:40:35;;;;;;;9.32;1.27;;;;;;;6.84;60.35;99013.16;10190878;28;20050;-68
2021/01/21 16:45:31;;;;;;;7.07;1.35;;;;;;;6.80;60.80;99033.16;10187630;28;20579;-67
2021/01/21 16:50:27;;;;;;;6.70;1.20;;;;;;;6.78;60.76;99019.13;10179547;28;20046;-66
2021/01/21 16:55:23;;;;;;;3.83;1.15;;;;;;;6.74;61.38;99024.44;10175408;28;20159;-67
2021/01/21 17:00:20;;;;;;;10.07;1.75;;;;;;;6.81;60.71;99030.13;10172570;28;20056;-68
2021/01/21 17:05:19;;;;;;;9.05;1.75;;;;;;;6.78;61.01;99033.50;10178539;28;20042;-64
2021/01/21 17:10:15;;;;;;;8.73;2.28;;;;;;;6.77;60.40;99034.63;10176853;28;20053;-66
2021/01/21 17:15:15;;;;;;;2.92;1.00;;;;;;;6.77;60.60;99031.91;10169613;28;20046;-68
2021/01/21 17:20:17;;;;;;;6.68;1.00;;;;;;;6.78;60.21;99041.66;10176505;28;20089;-64
2021/01/21 17:25:13;;;;;;;5.30;1.10;;;;;;;6.74;60.53;99041.53;10165182;28;20077;-65
2021/01/21 17:30:11;;;;;;;5.93;1.08;;;;;;;6.74;60.60;99035.31;10188483;28;20045;-67
2021/01/21 17:35:08;;;;;;;8.30;1.40;;;;;;;6.71;60.92;99041.41;10178430;28;20050;-66
2021/01/21 17:40:05;;;;;;;2.75;0.77;;;;;;;6.74;60.98;99043.44;10171881;28;20081;-65
2021/01/21 17:45:03;;;;;;;5.53;0.90;;;;;;;6.76;61.12;99043.91;10166590;28;20034;-65
2021/01/21 17:49:59;;;;;;;7.57;1.42;;;;;;;6.85;60.44;99036.47;10171013;28;20057;-66
2021/01/21 17:54:56;;;;;;;11.40;1.42;;;;;;;6.80;61.27;99039.41;10191514;28;20048;-66
2021/01/21 17:59:52;;;;;;;5.82;0.80;;;;;;;6.86;61.00;99032.63;10201516;28;20049;-67
2021/01/21 18:04:48;;;;;;;5.95;2.10;;;;;;;6.79;61.42;99037.03;10195527;28;20062;-66
2021/01/21 18:09:45;;;;;;;6.47;1.02;;;;;;;6.82;61.18;99015.41;10204287;28;20041;-63
2021/01/21 18:14:41;;;;;;;8.90;1.20;;;;;;;6.73;61.75;99025.56;10171106;28;20104;-65
2021/01/21 18:19:38;;;;;;;4.68;1.00;;;;;;;6.76;61.53;99022.19;10174740;28;20038;-65
2021/01/21 18:24:34;;;;;;;6.70;1.15;;;;;;;6.67;62.08;99007.88;10181573;28;20068;-65
2021/01/21 18:29:30;;;;;;;6.65;1.73;;;;;;;6.64;62.33;99008.56;10193724;28;20053;-65
2021/01/21 18:34:26;;;;;;;4.65;0.90;;;;;;;6.64;62.05;99014.00;10194521;28;20069;-65
2021/01/21 18:39:22;;;;;;;4.28;1.23;;;;;;;6.64;62.51;99014.00;10187662;28;20054;-66
2021/01/21 18:44:18;;;;;;;3.58;0.80;;;;;;;6.60;62.08;98991.34;10200017;28;20034;-64
2021/01/21 18:49:15;;;;;;;3.67;0.88;;;;;;;6.68;61.96;98993.16;10190983;28;20454;-66
2021/01/21 18:54:11;;;;;;;4.78;0.80;;;;;;;6.66;62.10;98996.22;10177960;28;20088;-66
2021/01/21 18:59:07;;;;;;;5.20;1.50;;;;;;;6.55;62.59;98994.25;10160064;28;20440;-66
2021/01/21 19:04:03;;;;;;;3.30;0.88;;;;;;;6.53;62.68;98981.00;10170367;28;20412;-68
2021/01/21 19:08:59;;;;;;;4.22;0.90;;;;;;;6.48;62.92;98963.00;10174166;28;20119;-66
2021/01/21 19:13:57;;;;;;;7.40;1.83;;;;;;;6.41;62.53;98968.19;10165857;28;20050;-68
2021/01/21 19:18:53;;;;;;;5.13;1.08;;;;;;;6.36;62.98;98954.81;10175673;28;20050;-64
2021/01/21 19:23:49;;;;;;;3.58;1.10;;;;;;;6.28;63.36;98966.53;10167075;28;20056;-68
2021/01/21 19:28:45;;;;;;;5.93;1.02;;;;;;;6.21;63.52;98968.97;10193681;28;20490;-68
2021/01/21 19:33:41;;;;;;;3.95;0.77;;;;;;;6.20;63.66;98961.97;10175040;28;20056;-67
2021/01/21 19:38:37;;;;;;;6.00;1.15;;;;;;;6.16;64.79;98952.91;10192126;28;20049;-67
2021/01/21 19:43:33;;;;;;;2.80;1.08;;;;;;;6.14;64.42;98957.88;10193974;28;20049;-66
2021/01/21 19:48:30;;;;;;;4.20;0.90;;;;;;;6.22;63.98;98954.28;10168365;28;20081;-65
2021/01/21 19:53:26;;;;;;;4.65;1.30;;;;;;;6.19;64.10;98954.94;10177205;28;20050;-65
2021/01/21 19:58:22;;;;;;;4.68;0.90;;;;;;;6.18;64.07;98950.66;10173010;28;20072;-66
2021/01/21 20:03:19;;;;;;;5.85;0.82;;;;;;;6.22;63.73;98959.69;10165280;28;20047;-64
2021/01/21 20:08:15;;;;;;;3.92;0.80;;;;;;;6.13;64.39;98945.41;10189243;28;20127;-66
2021/01/21 20:13:11;;;;;;;5.00;1.00;;;;;;;6.08;63.52;98928.22;10174587;28;20042;-67
2021/01/21 20:18:07;;;;;;;5.68;0.88;;;;;;;5.95;64.65;98940.13;10167373;28;20066;-65
2021/01/21 20:23:03;;;;;;;6.00;0.80;;;;;;;5.78;64.82;98924.75;10169131;28;20049;-65
2021/01/21 20:27:59;;;;;;;4.88;0.90;;;;;;;5.80;64.13;98916.25;10176638;28;20508;-64
2021/01/21 20:32:56;;;;;;;6.10;1.02;;;;;;;5.72;64.68;98909.78;10162940;28;20416;-65
2021/01/21 20:37:52;;;;;;;8.20;0.95;;;;;;;5.53;65.59;98896.66;10177734;28;20076;-65
2021/01/21 20:42:48;;;;;;;3.35;0.75;;;;;;;5.51;65.22;98896.19;10173215;28;20100;-66
2021/01/21 20:47:44;;;;;;;3.60;0.75;;;;;;;5.44;66.03;98876.94;10179978;28;20672;-65
2021/01/21 20:52:40;;;;;;;4.15;0.90;;;;;;;5.39;65.94;98864.38;10181559;28;20463;-64
2021/01/21 20:57:37;;;;;;;5.78;0.90;;;;;;;5.43;66.17;98850.94;10173437;28;20061;-66
2021/01/21 21:02:33;;;;;;;3.47;0.70;;;;;;;5.38;66.62;98843.81;10162385;28;20057;-63
2021/01/21 21:07:29;;;;;;;3.42;0.95;;;;;;;5.39;66.54;98823.72;10162022;28;20177;-65
2021/01/21 21:12:26;;;;;;;7.00;1.00;;;;;;;5.36;66.29;98820.88;10159776;28;20037;-65
2021/01/21 21:17:22;;;;;;;4.22;0.82;;;;;;;5.34;66.66;98801.44;10170834;28;20250;-67
2021/01/21 21:22:18;;;;;;;4.72;1.25;;;;;;;5.40;66.87;98814.47;10181308;28;20118;-67
2021/01/21 21:27:14;;;;;;;5.47;1.00;;;;;;;5.39;66.54;98802.03;10184211;28;20080;-67
2021/01/21 21:32:10;;;;;;;3.20;0.70;;;;;;;5.41;67.16;98796.31;10175447;28;20141;-68
2021/01/21 21:37:07;;;;;;;8.13;1.08;;;;;;;5.46;66.50;98790.69;10187588;28;20082;-67
2021/01/21 21:42:03;;;;;;;3.20;0.70;;;;;;;5.56;67.15;98776.72;10170209;28;20054;-67
2021/01/21 21:46:59;;;;;;;10.88;2.53;;;;;;;5.62;66.72;98764.56;10164699;28;20039;-67
2021/01/21 21:51:58;;;;;;;4.97;1.40;;;;;;;5.68;67.01;98763.19;10179887;28;20137;-68
2021/01/21 21:56:54;;;;;;;4.88;1.15;;;;;;;5.75;66.01;98762.66;10184953;28;20042;-68
2021/01/21 22:01:50;;;;;;;5.20;0.93;;;;;;;5.79;66.25;98762.81;10199885;28;20566;-68
2021/01/21 22:06:46;;;;;;;8.43;2.42;;;;;;;5.77;66.42;98748.78;10183129;28;20073;-67
2021/01/21 22:11:42;;;;;;;8.98;0.95;;;;;;;5.76;68.06;98752.63;10203702;28;20064;-67
2021/01/21 22:16:38;;;;;;;4.20;0.70;;;;;;;5.63;69.42;98749.84;10191740;28;20097;-67
2021/01/21 22:21:34;;;;;;;5.10;0.75;;;;;;;5.46;71.85;98733.75;10194473;28;20050;-65
2021/01/21 22:26:30;;;;;;;4.55;1.35;;;;;;;5.37;73.74;98722.19;10190334;28;20101;-65
2021/01/21 22:31:26;;;;;;;4.78;1.33;;;;;;;5.33;74.01;98713.13;10188842;28;20046;-63
2021/01/21 22:36:23;;;;;;;4.30;1.00;;;;;;;5.33;75.80;98700.38;10182685;28;20054;-65
2021/01/21 22:41:19;;;;;;;4.35;0.70;;;;;;;5.26;76.92;98700.91;10193910;28;20046;-68
2021/01/21 22:46:15;;;;;;;5.00;1.05;;;;;;;5.28;77.49;98676.19;10195579;28;20054;-68
2021/01/21 22:51:11;;;;;;;5.65;0.93;;;;;;;5.26;78.27;98660.25;10206287;28;20045;-67
2021/01/21 22:56:07;;;;;;;10.98;1.23;;;;;;;5.31;78.43;98648.41;10206438;28;20140;-68
2021/01/21 23:01:03;;;;;;;3.97;0.90;;;;;;;5.31;79.25;98634.88;10187703;28;20058;-68
2021/01/21 23:05:59;;;;;;;6.20;0.98;;;;;;;5.35;78.86;98613.34;10180650;28;20060;-67
2021/01/21 23:10:55;;;;;;;5.38;0.75;;;;;;;5.37;78.93;98592.91;10195285;28;20042;-67
2021/01/21 23:15:51;;;;;;;2.40;0.70;;;;;;;5.36;79.06;98571.53;10202307;28;20052;-68
2021/01/21 23:20:48;;;;;;;10.23;1.10;;;;;;;5.31;79.79;98547.38;10189057;28;20061;-68